createdAt,value
2018-01-06T00:00:45.356Z,6.86
2018-01-06T00:03:13.701Z,6.88
2018-01-06T00:05:42.026Z,6.95
2018-01-06T00:08:10.359Z,6.88
2018-01-06T00:10:38.687Z,6.88
2018-01-06T00:13:07.030Z,6.76
2018-01-06T00:15:35.382Z,6.72
2018-01-06T00:18:03.707Z,6.78
2018-01-06T00:20:32.028Z,6.75
2018-01-06T00:23:01.128Z,6.97
2018-01-06T00:25:29.487Z,7.01
2018-01-06T00:27:57.812Z,7.12
2018-01-06T00:30:26.148Z,7.10
2018-01-06T00:32:55.235Z,6.94
2018-01-06T00:35:23.561Z,6.89
2018-01-06T00:37:51.894Z,6.72
2018-01-06T00:40:20.223Z,6.61
2018-01-06T00:42:48.546Z,6.28
2018-01-06T00:45:16.884Z,5.48
2018-01-06T00:47:45.216Z,5.09
2018-01-06T00:50:13.566Z,5.20
2018-01-06T00:52:41.891Z,5.26
2018-01-06T00:55:10.991Z,5.43
2018-01-06T00:57:39.315Z,5.36
2018-01-06T01:00:07.631Z,5.31
2018-01-06T01:02:35.975Z,5.28
2018-01-06T01:05:04.317Z,5.40
2018-01-06T01:07:32.674Z,5.09
2018-01-06T01:10:01.038Z,4.87
2018-01-06T01:12:29.384Z,5.11
2018-01-06T01:14:57.730Z,5.28
2018-01-06T01:17:26.064Z,5.54
2018-01-06T01:19:55.199Z,5.61
2018-01-06T01:22:23.542Z,5.68
2018-01-06T01:24:51.884Z,5.66
2018-01-06T01:27:20.228Z,5.86
2018-01-06T01:29:48.555Z,5.80
2018-01-06T01:32:16.875Z,5.89
2018-01-06T01:34:45.585Z,5.86
2018-01-06T01:37:13.911Z,6.01
2018-01-06T01:39:43.008Z,6.13
2018-01-06T01:42:12.100Z,6.15
2018-01-06T01:44:40.441Z,6.04
2018-01-06T01:47:08.770Z,5.89
2018-01-06T01:49:37.120Z,5.50
2018-01-06T01:52:05.439Z,5.53
2018-01-06T01:54:33.779Z,5.43
2018-01-06T01:57:02.871Z,5.33
2018-01-06T01:59:31.190Z,5.21
2018-01-06T02:01:59.529Z,5.06
2018-01-06T02:04:27.845Z,5.01
2018-01-06T02:06:56.186Z,4.79
2018-01-06T02:09:25.266Z,4.42
2018-01-06T02:11:53.581Z,4.42
2018-01-06T02:14:21.895Z,4.60
2018-01-06T02:16:50.210Z,4.41
2018-01-06T02:19:18.529Z,4.47
2018-01-06T02:21:46.877Z,4.36
2018-01-06T02:24:15.967Z,4.31
2018-01-06T02:26:45.396Z,4.48
2018-01-06T02:29:13.727Z,4.71
2018-01-06T02:31:42.055Z,4.91
2018-01-06T02:34:10.395Z,5.11
2018-01-06T02:36:40.544Z,5.21
2018-01-06T02:39:08.881Z,5.31
2018-01-06T02:41:37.216Z,5.40
2018-01-06T02:44:05.559Z,5.38
2018-01-06T02:46:33.900Z,5.35
2018-01-06T02:49:02.215Z,5.24
2018-01-06T02:51:30.549Z,5.13
2018-01-06T02:53:58.915Z,4.99
2018-01-06T02:56:27.248Z,4.24
2018-01-06T02:58:56.364Z,4.39
2018-01-06T03:01:24.709Z,4.47
2018-01-06T03:03:53.058Z,4.58
2018-01-06T03:06:21.405Z,4.54
2018-01-06T03:08:49.722Z,4.17
2018-01-06T03:11:18.052Z,4.20
2018-01-06T03:13:46.379Z,4.25
2018-01-06T03:16:14.711Z,4.25
2018-01-06T03:18:43.036Z,4.06
2018-01-06T03:21:11.355Z,4.22
2018-01-06T03:23:39.669Z,3.96
2018-01-06T03:26:07.982Z,4.17
2018-01-06T03:28:36.300Z,4.29
2018-01-06T03:31:04.628Z,4.33
2018-01-06T03:33:32.954Z,4.38
2018-01-06T03:36:01.288Z,4.41
2018-01-06T03:38:31.065Z,4.27
2018-01-06T03:40:59.404Z,4.17
2018-01-06T03:43:27.718Z,4.24
2018-01-06T03:45:56.061Z,4.30
2018-01-06T03:48:24.393Z,4.15
2018-01-06T03:50:52.719Z,3.82
2018-01-06T03:53:21.035Z,3.57
2018-01-06T03:55:49.391Z,3.85
2018-01-06T03:58:17.715Z,4.03
2018-01-06T04:00:46.053Z,4.09
2018-01-06T04:03:14.375Z,4.15
2018-01-06T04:05:42.715Z,4.05
2018-01-06T04:08:11.049Z,4.07
2018-01-06T04:10:40.242Z,4.07
2018-01-06T04:13:08.592Z,4.04
2018-01-06T04:15:36.908Z,4.02
2018-01-06T04:18:05.223Z,3.71
2018-01-06T04:20:33.540Z,3.45
2018-01-06T04:23:01.885Z,3.25
2018-01-06T04:25:30.222Z,3.40
2018-01-06T04:27:58.528Z,3.46
2018-01-06T04:30:26.842Z,3.32
2018-01-06T04:32:55.163Z,3.42
2018-01-06T04:35:23.500Z,3.46
2018-01-06T04:37:51.826Z,3.43
2018-01-06T04:40:20.166Z,3.42
2018-01-06T04:42:48.486Z,3.45
2018-01-06T04:45:16.819Z,3.39
2018-01-06T04:47:45.921Z,3.41
2018-01-06T04:50:14.247Z,3.36
2018-01-06T04:52:42.926Z,3.37
2018-01-06T04:55:11.253Z,3.40
2018-01-06T04:57:39.650Z,3.44
2018-01-06T05:00:08.006Z,3.40
2018-01-06T05:02:37.109Z,3.49
2018-01-06T05:05:06.213Z,3.51
2018-01-06T05:07:35.313Z,3.46
2018-01-06T05:10:04.414Z,3.49
2018-01-06T05:12:32.744Z,3.36
2018-01-06T05:15:02.038Z,3.25
2018-01-06T05:17:30.354Z,3.30
2018-01-06T05:19:59.450Z,3.31
2018-01-06T05:22:27.778Z,3.24
2018-01-06T05:24:57.740Z,3.19
2018-01-06T05:27:26.052Z,3.01
2018-01-06T05:29:54.366Z,2.55
2018-01-06T05:32:23.679Z,2.46
2018-01-06T05:34:52.009Z,2.53
2018-01-06T05:37:21.181Z,2.22
2018-01-06T05:39:49.503Z,2.44
2018-01-06T05:42:17.834Z,2.69
2018-01-06T05:44:46.150Z,2.82
2018-01-06T05:47:14.490Z,2.96
2018-01-06T05:49:42.842Z,3.00
2018-01-06T05:52:11.740Z,2.95
2018-01-06T05:54:40.076Z,2.93
2018-01-06T05:57:08.398Z,2.90
2018-01-06T05:59:37.495Z,2.71
2018-01-06T06:02:05.824Z,2.93
2018-01-06T06:04:34.152Z,2.95
2018-01-06T06:07:03.244Z,3.01
2018-01-06T06:09:31.584Z,2.98
2018-01-06T06:11:59.924Z,2.98
2018-01-06T06:14:28.854Z,2.97
2018-01-06T06:16:57.206Z,2.83
2018-01-06T06:19:25.544Z,2.74
2018-01-06T06:21:53.858Z,2.74
2018-01-06T06:24:22.187Z,2.60
2018-01-06T06:26:50.497Z,2.46
2018-01-06T06:29:18.801Z,2.40
2018-01-06T06:31:47.112Z,2.66
2018-01-06T06:34:15.432Z,2.70
2018-01-06T06:36:44.295Z,2.90
2018-01-06T06:39:13.388Z,2.31
2018-01-06T06:41:41.752Z,2.35
2018-01-06T06:44:10.082Z,2.40
2018-01-06T06:46:38.425Z,2.24
2018-01-06T06:49:07.559Z,1.98
2018-01-06T06:51:35.918Z,2.33
2018-01-06T06:54:04.253Z,2.57
2018-01-06T06:56:32.579Z,2.72
2018-01-06T06:59:00.932Z,2.92
2018-01-06T07:01:30.035Z,2.87
2018-01-06T07:03:58.377Z,2.92
2018-01-06T07:06:26.697Z,2.92
2018-01-06T07:08:55.792Z,2.98
2018-01-06T07:11:24.142Z,2.40
2018-01-06T07:13:52.460Z,2.14
2018-01-06T07:16:20.798Z,1.77
2018-01-06T07:18:49.121Z,2.15
2018-01-06T07:21:17.432Z,2.38
2018-01-06T07:23:45.768Z,2.55
2018-01-06T07:26:14.092Z,2.71
2018-01-06T07:28:42.437Z,2.71
2018-01-06T07:31:10.781Z,2.87
2018-01-06T07:33:39.883Z,2.95
2018-01-06T07:36:08.967Z,3.03
2018-01-06T07:38:37.305Z,3.06
2018-01-06T07:41:05.653Z,3.11
2018-01-06T07:43:33.989Z,3.25
2018-01-06T07:46:02.318Z,3.37
2018-01-06T07:48:30.639Z,3.39
2018-01-06T07:50:58.974Z,3.34
2018-01-06T07:53:28.023Z,3.32
2018-01-06T07:55:57.133Z,3.44
2018-01-06T07:58:26.214Z,3.55
2018-01-06T08:00:54.572Z,3.62
2018-01-06T08:03:22.937Z,3.59
2018-01-06T08:05:51.263Z,2.89
2018-01-06T08:08:19.578Z,2.40
2018-01-06T08:10:47.934Z,2.72
2018-01-06T08:13:16.249Z,2.94
2018-01-06T08:15:44.585Z,3.08
2018-01-06T08:18:13.724Z,3.27
2018-01-06T08:20:42.048Z,3.42
2018-01-06T08:23:10.378Z,3.48
2018-01-06T08:25:40.182Z,3.61
2018-01-06T08:28:08.503Z,3.76
2018-01-06T08:30:37.596Z,3.96
2018-01-06T08:33:06.424Z,4.01
2018-01-06T08:35:34.757Z,4.15
2018-01-06T08:38:03.868Z,4.23
2018-01-06T08:40:32.213Z,4.28
2018-01-06T08:43:00.541Z,4.36
2018-01-06T08:45:28.869Z,4.27
2018-01-06T08:47:57.187Z,4.32
2018-01-06T08:50:25.542Z,4.21
2018-01-06T08:52:53.888Z,4.26
2018-01-06T08:55:22.228Z,4.22
2018-01-06T08:57:50.561Z,4.15
2018-01-06T09:00:18.904Z,4.15
2018-01-06T09:02:47.244Z,4.14
2018-01-06T09:05:15.577Z,4.19
2018-01-06T09:07:43.898Z,4.27
2018-01-06T09:10:12.214Z,4.39
2018-01-06T09:12:40.553Z,4.12
2018-01-06T09:15:08.883Z,4.27
2018-01-06T09:17:37.250Z,4.43
2018-01-06T09:20:05.576Z,4.49
2018-01-06T09:22:34.698Z,4.56
2018-01-06T09:25:03.023Z,4.54
2018-01-06T09:27:31.381Z,4.44
2018-01-06T09:29:59.749Z,4.39
2018-01-06T09:32:28.079Z,3.95
2018-01-06T09:34:57.171Z,4.11
2018-01-06T09:37:26.255Z,4.28
2018-01-06T09:39:54.586Z,4.58
2018-01-06T09:42:22.919Z,4.70
2018-01-06T09:44:51.266Z,4.78
2018-01-06T09:47:19.638Z,4.80
2018-01-06T09:49:47.971Z,4.94
2018-01-06T09:52:17.085Z,5.14
2018-01-06T09:54:45.399Z,5.27
2018-01-06T09:57:13.763Z,5.33
2018-01-06T09:59:42.104Z,5.53
2018-01-06T10:02:10.447Z,5.70
2018-01-06T10:04:38.771Z,5.42
2018-01-06T10:07:07.092Z,5.74
2018-01-06T10:09:35.401Z,5.78
2018-01-06T10:12:03.771Z,6.00
2018-01-06T10:14:32.066Z,6.02
2018-01-06T10:17:00.430Z,5.75
2018-01-06T10:19:29.566Z,5.90
2018-01-06T10:21:57.895Z,5.21
2018-01-06T10:24:26.231Z,5.39
2018-01-06T10:26:54.559Z,5.36
2018-01-06T10:29:23.673Z,5.66
2018-01-06T10:31:52.020Z,5.96
2018-01-06T10:34:21.133Z,6.13
2018-01-06T10:36:49.494Z,6.27
2018-01-06T10:39:18.582Z,6.36
2018-01-06T10:41:46.925Z,6.45
2018-01-06T10:44:15.265Z,6.17
2018-01-06T10:46:44.530Z,5.47
2018-01-06T10:49:12.902Z,5.35
2018-01-06T10:51:41.252Z,5.41
2018-01-06T10:54:09.621Z,5.70
2018-01-06T10:56:37.964Z,6.00
2018-01-06T10:59:07.100Z,6.19
2018-01-06T11:01:40.812Z,6.36
2018-01-06T11:04:09.204Z,6.18
2018-01-06T11:06:37.573Z,6.13
2018-01-06T11:09:05.950Z,6.19
2018-01-06T11:11:34.282Z,6.44
2018-01-06T11:14:03.381Z,6.58
2018-01-06T11:16:31.731Z,6.83
2018-01-06T11:19:00.078Z,6.95
2018-01-06T11:21:28.432Z,7.12
2018-01-06T11:23:56.780Z,7.19
2018-01-06T11:26:25.886Z,7.04
2018-01-06T11:28:54.284Z,7.10
2018-01-06T11:31:24.344Z,6.98
2018-01-06T11:33:52.716Z,7.13
2018-01-06T11:36:21.055Z,7.21
2018-01-06T11:38:49.389Z,7.25
2018-01-06T11:41:17.735Z,7.50
2018-01-06T11:43:46.112Z,7.34
2018-01-06T11:46:14.505Z,7.17
2018-01-06T11:48:42.863Z,7.39
2018-01-06T11:51:11.206Z,7.54
2018-01-06T11:53:39.535Z,7.71
2018-01-06T11:56:07.870Z,7.94
2018-01-06T11:58:36.989Z,8.03
2018-01-06T12:01:05.347Z,7.92
2018-01-06T12:03:33.682Z,8.10
2018-01-06T12:06:02.024Z,8.08
2018-01-06T12:08:30.365Z,8.11
2018-01-06T12:10:59.467Z,8.34
2018-01-06T12:13:27.819Z,8.50
2018-01-06T12:15:56.354Z,8.30
2018-01-06T12:18:24.685Z,8.37
2018-01-06T12:20:53.015Z,8.41
2018-01-06T12:23:21.348Z,8.53
2018-01-06T12:25:49.709Z,8.59
2018-01-06T12:28:18.041Z,8.40
2018-01-06T12:30:47.145Z,8.37
2018-01-06T12:33:15.483Z,7.93
2018-01-06T12:35:43.867Z,8.06
2018-01-06T12:38:13.197Z,7.85
2018-01-06T12:40:41.569Z,7.94
2018-01-06T12:43:09.889Z,7.99
2018-01-06T12:45:38.219Z,7.83
2018-01-06T12:48:06.548Z,7.81
2018-01-06T12:50:34.891Z,7.92
2018-01-06T12:53:03.996Z,8.01
2018-01-06T12:55:32.357Z,7.95
2018-01-06T12:58:00.736Z,8.11
2018-01-06T13:00:29.437Z,8.26
2018-01-06T13:02:57.781Z,8.37
2018-01-06T13:05:26.115Z,8.37
2018-01-06T13:07:54.467Z,8.38
2018-01-06T13:10:24.368Z,8.39
2018-01-06T13:12:54.316Z,8.26
2018-01-06T13:15:22.677Z,8.44
2018-01-06T13:17:51.002Z,8.54
2018-01-06T13:20:20.198Z,8.29
2018-01-06T13:22:49.310Z,8.28
2018-01-06T13:25:17.649Z,8.35
2018-01-06T13:27:45.997Z,8.46
2018-01-06T13:30:14.339Z,8.59
2018-01-06T13:32:43.448Z,8.27
2018-01-06T13:35:11.797Z,8.11
2018-01-06T13:37:40.909Z,8.23
2018-01-06T13:40:10.012Z,8.26
2018-01-06T13:42:38.331Z,8.47
2018-01-06T13:45:06.673Z,8.37
2018-01-06T13:47:36.028Z,8.09
2018-01-06T13:50:04.364Z,8.23
2018-01-06T13:52:32.700Z,8.35
2018-01-06T13:55:01.858Z,8.28
2018-01-06T13:57:30.194Z,8.39
2018-01-06T13:59:58.522Z,8.53
2018-01-06T14:02:26.875Z,8.64
2018-01-06T14:04:55.227Z,8.76
2018-01-06T14:07:23.554Z,8.44
2018-01-06T14:09:51.872Z,8.31
2018-01-06T14:12:20.204Z,6.83
2018-01-06T14:14:48.580Z,6.99
2018-01-06T14:17:16.918Z,7.43
2018-01-06T14:19:45.247Z,7.61
2018-01-06T14:22:13.627Z,7.21
2018-01-06T14:24:41.974Z,7.07
2018-01-06T14:27:10.304Z,7.12
2018-01-06T14:29:39.385Z,7.38
2018-01-06T14:32:07.715Z,7.21
2018-01-06T14:34:36.033Z,6.85
2018-01-06T14:37:04.361Z,6.44
2018-01-06T14:39:32.691Z,6.85
2018-01-06T14:42:01.077Z,7.22
2018-01-06T14:44:29.406Z,7.45
2018-01-06T14:46:57.749Z,7.65
2018-01-06T14:49:26.092Z,7.71
2018-01-06T14:51:54.438Z,7.35
2018-01-06T14:54:22.798Z,6.92
2018-01-06T14:56:51.149Z,7.37
2018-01-06T14:59:19.496Z,7.57
2018-01-06T15:01:47.819Z,7.67
2018-01-06T15:04:16.181Z,7.61
2018-01-06T15:06:46.125Z,7.39
2018-01-06T15:09:16.291Z,7.68
2018-01-06T15:11:44.644Z,7.80
2018-01-06T15:14:12.994Z,7.86
2018-01-06T15:16:42.428Z,7.47
2018-01-06T15:19:10.772Z,7.62
2018-01-06T15:21:39.894Z,7.78
2018-01-06T15:24:08.223Z,7.86
2018-01-06T15:26:37.349Z,7.93
2018-01-06T15:29:05.680Z,8.02
2018-01-06T15:31:34.003Z,7.85
2018-01-06T15:34:03.096Z,7.67
2018-01-06T15:36:31.466Z,7.77
2018-01-06T15:38:59.832Z,7.91
2018-01-06T15:41:28.335Z,7.95
2018-01-06T15:43:56.672Z,7.91
2018-01-06T15:46:25.021Z,7.86
2018-01-06T15:48:53.355Z,7.14
2018-01-06T15:51:22.470Z,7.24
2018-01-06T15:53:50.810Z,7.33
2018-01-06T15:56:19.136Z,6.92
2018-01-06T15:58:47.501Z,6.91
2018-01-06T16:01:15.858Z,7.16
2018-01-06T16:03:44.941Z,7.21
2018-01-06T16:06:13.266Z,6.71
2018-01-06T16:08:41.615Z,6.56
2018-01-06T16:11:09.960Z,6.81
2018-01-06T16:13:38.301Z,7.10
2018-01-06T16:16:06.665Z,7.26
2018-01-06T16:18:34.990Z,7.38
2018-01-06T16:21:03.338Z,7.43
2018-01-06T16:23:31.665Z,7.39
2018-01-06T16:26:00.022Z,7.43
2018-01-06T16:28:28.369Z,7.29
2018-01-06T16:30:56.761Z,6.98
2018-01-06T16:33:25.091Z,7.13
2018-01-06T16:35:53.442Z,6.57
2018-01-06T16:38:21.794Z,6.77
2018-01-06T16:40:50.114Z,6.91
2018-01-06T16:43:18.482Z,7.09
2018-01-06T16:45:47.660Z,7.26
2018-01-06T16:48:16.010Z,7.38
2018-01-06T16:50:45.245Z,7.42
2018-01-06T16:53:14.486Z,7.50
2018-01-06T16:55:43.580Z,7.56
2018-01-06T16:58:11.926Z,7.61
2018-01-06T17:00:40.298Z,7.67
2018-01-06T17:03:09.930Z,7.54
2018-01-06T17:05:38.270Z,7.34
2018-01-06T17:08:06.608Z,7.08
2018-01-06T17:10:34.917Z,7.26
2018-01-06T17:13:03.242Z,7.26
2018-01-06T17:15:32.335Z,7.27
2018-01-06T17:18:01.430Z,7.35
2018-01-06T17:20:29.781Z,7.34
2018-01-06T17:22:58.989Z,7.35
2018-01-06T17:25:27.318Z,7.36
2018-01-06T17:27:55.649Z,7.38
2018-01-06T17:30:24.005Z,7.23
2018-01-06T17:32:52.330Z,7.06
2018-01-06T17:35:21.419Z,6.89
2018-01-06T17:37:49.750Z,6.87
2018-01-06T17:40:18.893Z,6.58
2018-01-06T17:42:48.005Z,6.39
2018-01-06T17:45:16.332Z,6.42
2018-01-06T17:47:44.697Z,6.62
2018-01-06T17:50:13.064Z,6.71
2018-01-06T17:52:41.395Z,6.72
2018-01-06T17:55:11.757Z,6.25
2018-01-06T17:57:40.101Z,6.07
2018-01-06T18:00:09.197Z,6.17
2018-01-06T18:02:37.658Z,6.40
2018-01-06T18:05:06.787Z,6.43
2018-01-06T18:07:35.217Z,6.35
2018-01-06T18:10:03.571Z,6.40
2018-01-06T18:12:31.953Z,6.47
2018-01-06T18:15:00.362Z,6.51
2018-01-06T18:17:28.709Z,6.41
2018-01-06T18:19:57.113Z,6.62
2018-01-06T18:22:25.534Z,6.73
2018-01-06T18:24:54.144Z,6.77
2018-01-06T18:27:22.636Z,6.87
2018-01-06T18:29:51.081Z,6.85
2018-01-06T18:32:19.890Z,6.80
2018-01-06T18:34:48.332Z,6.80
2018-01-06T18:37:16.823Z,6.77
2018-01-06T18:39:45.439Z,6.74
2018-01-06T18:42:14.406Z,6.86
2018-01-06T18:44:43.086Z,6.93
2018-01-06T18:47:12.657Z,6.94
2018-01-06T18:49:41.712Z,6.84
2018-01-06T18:52:11.126Z,6.76
2018-01-06T18:54:40.312Z,6.88
2018-01-06T18:57:09.897Z,6.89
2018-01-06T18:59:39.007Z,7.06
2018-01-06T19:02:07.983Z,7.09
2018-01-06T19:04:36.911Z,7.10
2018-01-06T19:07:05.594Z,7.16
2018-01-06T19:09:34.875Z,7.07
2018-01-06T19:12:04.221Z,7.19
2018-01-06T19:14:33.718Z,7.17
2018-01-06T19:17:03.579Z,7.12
2018-01-06T19:19:33.333Z,7.11
2018-01-06T19:22:03.789Z,7.21
2018-01-06T19:24:34.120Z,7.15
2018-01-06T19:27:03.828Z,6.96
2018-01-06T19:29:33.520Z,6.99
2018-01-06T19:32:03.400Z,6.86
2018-01-06T19:34:33.182Z,6.85
2018-01-06T19:37:02.936Z,6.85
2018-01-06T19:39:32.782Z,6.84
2018-01-06T19:42:03.363Z,6.82
2018-01-06T19:44:35.180Z,6.73
2018-01-06T19:47:04.935Z,6.82
2018-01-06T19:49:34.707Z,6.88
2018-01-06T19:52:04.622Z,6.85
2018-01-06T19:54:35.012Z,6.77
2018-01-06T19:57:05.244Z,6.81
2018-01-06T19:59:35.093Z,6.82
2018-01-06T20:02:05.008Z,6.92
2018-01-06T20:04:34.971Z,6.86
2018-01-06T20:07:04.934Z,6.87
2018-01-06T20:09:34.823Z,6.72
2018-01-06T20:12:05.747Z,6.69
2018-01-06T20:14:35.770Z,6.70
2018-01-06T20:17:05.623Z,6.67
2018-01-06T20:19:36.370Z,6.61
2018-01-06T20:22:06.265Z,6.43
2018-01-06T20:24:36.249Z,6.57
2018-01-06T20:27:06.175Z,6.58
2018-01-06T20:29:36.005Z,6.53
2018-01-06T20:32:05.813Z,6.53
2018-01-06T20:34:35.726Z,6.56
2018-01-06T20:37:05.560Z,6.50
2018-01-06T20:39:38.016Z,6.63
2018-01-06T20:42:07.825Z,6.65
2018-01-06T20:44:37.655Z,6.54
2018-01-06T20:47:07.408Z,6.45
2018-01-06T20:49:37.249Z,6.41
2018-01-06T20:52:07.110Z,6.39
2018-01-06T20:54:37.099Z,6.32
2018-01-06T20:57:06.924Z,6.36
2018-01-06T20:59:36.774Z,6.12
2018-01-06T21:02:06.664Z,6.23
2018-01-06T21:04:37.579Z,6.27
2018-01-06T21:07:07.429Z,6.14
2018-01-06T21:09:37.365Z,6.37
2018-01-06T21:12:07.255Z,6.24
2018-01-06T21:14:37.776Z,6.20
2018-01-06T21:17:07.684Z,6.00
2018-01-06T21:19:37.477Z,6.16
2018-01-06T21:22:08.139Z,6.12
2018-01-06T21:24:38.091Z,6.34
2018-01-06T21:27:07.991Z,6.34
2018-01-06T21:29:37.973Z,6.42
2018-01-06T21:32:08.537Z,6.42
2018-01-06T21:34:38.398Z,6.44
2018-01-06T21:37:08.268Z,6.35
2018-01-06T21:39:38.269Z,6.36
2018-01-06T21:42:08.118Z,6.44
2018-01-06T21:44:37.884Z,6.32
2018-01-06T21:47:08.355Z,6.29
2018-01-06T21:49:38.574Z,6.41
2018-01-06T21:52:08.560Z,6.35
2018-01-06T21:54:38.444Z,6.19
2018-01-06T21:57:08.308Z,6.20
2018-01-06T21:59:38.133Z,6.32
2018-01-06T22:02:07.887Z,6.13
2018-01-06T22:04:38.506Z,6.18
2018-01-06T22:07:08.409Z,6.01
2018-01-06T22:09:38.321Z,6.04
2018-01-06T22:12:08.200Z,6.01
2018-01-06T22:14:38.101Z,6.15
2018-01-06T22:17:08.089Z,6.02
2018-01-06T22:19:38.020Z,6.19
2018-01-06T22:22:07.890Z,6.19
2018-01-06T22:24:37.769Z,6.04
2018-01-06T22:27:07.635Z,5.65
2018-01-06T22:29:38.220Z,5.91
2018-01-06T22:32:08.844Z,6.05
2018-01-06T22:34:38.954Z,5.85
2018-01-06T22:37:08.834Z,5.78
2018-01-06T22:39:39.382Z,5.78
2018-01-06T22:42:09.164Z,5.90
2018-01-06T22:44:39.163Z,6.01
2018-01-06T22:47:09.095Z,6.05
2018-01-06T22:49:39.758Z,5.92
2018-01-06T22:52:09.583Z,5.83
2018-01-06T22:54:39.374Z,5.93
2018-01-06T22:57:09.212Z,5.79
2018-01-06T22:59:39.002Z,5.93
2018-01-06T23:02:09.493Z,5.58
2018-01-06T23:04:39.449Z,5.77
2018-01-06T23:07:09.263Z,5.69
2018-01-06T23:09:38.942Z,5.66
2018-01-06T23:12:08.848Z,5.79
2018-01-06T23:14:38.541Z,5.79
2018-01-06T23:17:08.335Z,5.96
2018-01-06T23:19:37.830Z,5.99
2018-01-06T23:22:07.881Z,5.86
2018-01-06T23:24:36.787Z,5.78
2018-01-06T23:27:05.600Z,5.81
2018-01-06T23:29:34.729Z,5.95
2018-01-06T23:32:03.448Z,5.91
2018-01-06T23:34:32.115Z,5.68
2018-01-06T23:37:00.721Z,5.69
2018-01-06T23:39:29.243Z,5.75
2018-01-06T23:41:57.593Z,5.69
2018-01-06T23:44:25.975Z,5.77
2018-01-06T23:46:54.368Z,5.81
2018-01-06T23:49:22.843Z,5.83
2018-01-06T23:51:51.241Z,5.67
2018-01-06T23:54:19.570Z,5.79
2018-01-06T23:56:47.913Z,5.80
2018-01-06T23:59:16.247Z,5.84
